createdAt,value
2022-08-17T00:01:27.342Z,20.54
2022-08-17T00:06:35.953Z,20.51
2022-08-17T00:11:43.818Z,20.41
2022-08-17T00:17:08.351Z,20.30
2022-08-17T00:22:32.715Z,20.19
2022-08-17T00:27:39.887Z,20.07
2022-08-17T00:33:22.741Z,19.96
2022-08-17T00:38:15.489Z,19.85
2022-08-17T00:43:24.549Z,19.73
2022-08-17T00:48:30.903Z,19.66
2022-08-17T00:53:42.141Z,19.65
2022-08-17T00:58:47.756Z,19.66
2022-08-17T01:03:53.770Z,19.68
2022-08-17T01:09:07.044Z,19.65
2022-08-17T01:14:11.804Z,19.65
2022-08-17T01:19:20.251Z,19.66
2022-08-17T01:24:27.828Z,19.60
2022-08-17T01:29:34.234Z,19.58
2022-08-17T01:34:43.544Z,19.55
2022-08-17T01:40:03.208Z,19.51
2022-08-17T01:45:14.918Z,19.47
2022-08-17T01:50:23.593Z,19.43
2022-08-17T01:55:35.532Z,19.39
2022-08-17T02:00:59.760Z,19.37
2022-08-17T02:06:27.875Z,19.35
2022-08-17T02:11:37.788Z,19.25
2022-08-17T02:16:44.578Z,19.22
2022-08-17T02:21:51.573Z,19.18
2022-08-17T02:26:58.707Z,19.13
2022-08-17T02:32:05.005Z,19.06
2022-08-17T02:37:09.615Z,19.00
2022-08-17T02:42:18.579Z,18.86
2022-08-17T02:47:23.095Z,18.70
2022-08-17T02:52:43.734Z,18.64
2022-08-17T02:57:51.972Z,18.58
2022-08-17T03:02:56.571Z,18.55
2022-08-17T03:08:01.909Z,18.53
2022-08-17T03:13:09.106Z,18.50
2022-08-17T03:18:24.174Z,18.50
2022-08-17T03:23:31.663Z,18.44
2022-08-17T03:28:39.679Z,18.39
2022-08-17T03:33:44.560Z,18.36
2022-08-17T03:38:49.150Z,18.28
2022-08-17T03:43:58.485Z,18.25
2022-08-17T03:49:15.493Z,18.16
2022-08-17T03:54:32.539Z,18.06
2022-08-17T03:59:41.117Z,18.07
2022-08-17T04:04:45.653Z,18.06
2022-08-17T04:09:50.317Z,18.01
2022-08-17T04:14:57.626Z,17.97
2022-08-17T04:20:02.161Z,17.90
2022-08-17T04:25:10.768Z,17.89
2022-08-17T04:30:18.676Z,17.87
2022-08-17T04:35:25.756Z,17.81
2022-08-17T04:40:43.789Z,17.79
2022-08-17T04:45:55.890Z,17.79
2022-08-17T04:51:02.623Z,17.81
2022-08-17T04:56:08.113Z,17.81
2022-08-17T05:01:26.305Z,17.81
2022-08-17T05:06:31.984Z,17.82
2022-08-17T05:11:37.603Z,17.89
2022-08-17T05:16:45.918Z,17.89
2022-08-17T05:21:51.919Z,17.93
2022-08-17T05:26:56.571Z,17.98
2022-08-17T05:32:37.289Z,18.04
2022-08-17T05:37:36.004Z,18.09
2022-08-17T05:42:40.622Z,18.16
2022-08-17T05:47:49.674Z,18.21
2022-08-17T05:53:04.854Z,18.32
2022-08-17T05:58:19.845Z,18.42
2022-08-17T06:03:49.233Z,18.54
2022-08-17T06:08:59.413Z,18.66
2022-08-17T06:14:21.426Z,18.81
2022-08-17T06:19:36.274Z,18.97
2022-08-17T06:24:45.253Z,19.12
2022-08-17T06:29:56.841Z,19.27
2022-08-17T06:35:07.611Z,19.39
2022-08-17T06:40:32.827Z,19.54
2022-08-17T06:45:41.496Z,19.75
2022-08-17T06:50:53.575Z,19.91
2022-08-17T06:56:02.632Z,20.08
2022-08-17T07:01:13.098Z,20.26
2022-08-17T07:06:23.490Z,20.51
2022-08-17T07:11:32.811Z,20.74
2022-08-17T07:16:42.335Z,21.01
2022-08-17T07:21:56.786Z,21.22
2022-08-17T07:27:21.423Z,21.45
2022-08-17T07:32:31.900Z,21.76
2022-08-17T07:37:39.807Z,22.02
2022-08-17T07:42:46.635Z,22.34
2022-08-17T07:48:05.809Z,22.54
2022-08-17T07:53:23.236Z,22.75
2022-08-17T07:58:27.775Z,22.94
2022-08-17T08:03:34.210Z,23.20
2022-08-17T08:08:45.358Z,23.53
2022-08-17T08:13:50.102Z,23.89
2022-08-17T08:18:58.134Z,24.23
2022-08-17T08:24:30.037Z,24.52
2022-08-17T08:29:44.143Z,24.77
2022-08-17T08:35:02.883Z,25.10
2022-08-17T08:40:33.583Z,25.32
2022-08-17T08:45:46.976Z,25.69
2022-08-17T08:50:59.347Z,25.98
2022-08-17T08:56:12.710Z,26.34
2022-08-17T09:01:23.998Z,26.59
2022-08-17T09:06:46.946Z,26.75
2022-08-17T09:12:04.244Z,27.08
2022-08-17T09:17:16.590Z,27.18
2022-08-17T09:22:32.540Z,27.35
2022-08-17T09:27:54.901Z,27.62
2022-08-17T09:33:02.460Z,27.76
2022-08-17T09:38:28.106Z,27.91
2022-08-17T09:43:46.431Z,28.05
2022-08-17T09:48:57.424Z,28.14
2022-08-17T09:54:34.776Z,28.31
2022-08-17T09:59:41.983Z,28.53
2022-08-17T10:04:58.672Z,28.63
2022-08-17T10:10:14.299Z,28.69
2022-08-17T10:15:31.641Z,28.72
2022-08-17T10:20:44.855Z,28.90
2022-08-17T10:26:08.783Z,29.04
2022-08-17T10:31:40.806Z,29.15
2022-08-17T10:36:55.149Z,29.36
2022-08-17T10:42:05.807Z,29.88
2022-08-17T10:47:15.476Z,29.91
2022-08-17T10:52:48.972Z,29.95
2022-08-17T10:57:54.914Z,30.26
2022-08-17T11:03:02.077Z,30.32
2022-08-17T11:08:40.624Z,30.46
2022-08-17T11:13:54.352Z,30.66
2022-08-17T11:19:38.938Z,30.95
2022-08-17T11:24:48.177Z,31.04
2022-08-17T11:30:01.443Z,30.91
2022-08-17T11:35:32.119Z,31.01
2022-08-17T11:40:49.034Z,30.91
2022-08-17T11:46:13.536Z,31.04
2022-08-17T11:51:35.937Z,31.11
2022-08-17T11:56:45.593Z,31.02
2022-08-17T12:01:55.833Z,31.30
2022-08-17T12:07:09.687Z,31.73
2022-08-17T12:12:19.158Z,31.89
2022-08-17T12:17:41.244Z,31.91
2022-08-17T12:22:57.677Z,31.94
2022-08-17T12:28:06.385Z,32.26
2022-08-17T12:33:27.857Z,32.40
2022-08-17T12:38:37.524Z,32.53
2022-08-17T12:43:42.077Z,32.83
2022-08-17T12:48:59.127Z,32.95
2022-08-17T12:54:07.300Z,33.24
2022-08-17T12:59:13.655Z,33.36
2022-08-17T13:04:34.593Z,33.76
2022-08-17T13:09:41.741Z,33.88
2022-08-17T13:14:48.197Z,34.10
2022-08-17T13:19:54.081Z,34.29
2022-08-17T13:25:05.436Z,34.64
2022-08-17T13:30:14.974Z,34.33
2022-08-17T13:35:40.546Z,34.29
2022-08-17T13:40:53.342Z,33.87
2022-08-17T13:46:10.683Z,33.52
2022-08-17T13:51:19.839Z,33.20
2022-08-17T13:56:38.770Z,33.19
2022-08-17T14:01:51.052Z,32.92
2022-08-17T14:06:59.845Z,33.15
2022-08-17T14:12:12.073Z,33.46
2022-08-17T14:17:16.767Z,33.77
2022-08-17T14:22:27.053Z,33.61
2022-08-17T14:27:41.818Z,33.31
2022-08-17T14:32:58.191Z,34.03
2022-08-17T14:38:20.439Z,34.09
2022-08-17T14:43:28.886Z,34.32
2022-08-17T14:48:38.339Z,34.74
2022-08-17T14:53:45.940Z,34.41
2022-08-17T14:58:53.410Z,33.93
2022-08-17T15:03:58.463Z,33.61
2022-08-17T15:09:03.065Z,33.75
2022-08-17T15:14:10.733Z,33.66
2022-08-17T15:19:15.367Z,33.59
2022-08-17T15:24:19.991Z,33.61
2022-08-17T15:29:27.120Z,34.03
2022-08-17T15:34:31.633Z,34.47
2022-08-17T15:39:36.283Z,33.95
2022-08-17T15:44:44.815Z,33.86
2022-08-17T15:49:50.874Z,33.48
2022-08-17T15:54:58.198Z,33.90
2022-08-17T16:00:06.708Z,34.18
2022-08-17T16:05:19.865Z,34.38
2022-08-17T16:10:34.762Z,34.56
2022-08-17T16:15:43.183Z,34.48
2022-08-17T16:20:48.016Z,34.49
2022-08-17T16:25:54.262Z,34.58
2022-08-17T16:31:01.851Z,34.71
2022-08-17T16:36:07.732Z,34.95
2022-08-17T16:41:12.749Z,34.75
2022-08-17T16:46:19.899Z,34.55
2022-08-17T16:51:24.494Z,34.21
2022-08-17T16:56:32.700Z,34.02
2022-08-17T17:01:41.924Z,33.65
2022-08-17T17:07:01.157Z,33.39
2022-08-17T17:12:10.921Z,33.04
2022-08-17T17:17:26.600Z,32.72
2022-08-17T17:22:40.664Z,32.40
2022-08-17T17:27:53.212Z,31.57
2022-08-17T17:33:06.612Z,30.57
2022-08-17T17:38:18.173Z,30.21
2022-08-17T17:43:44.886Z,29.72
2022-08-17T17:48:52.424Z,29.41
2022-08-17T17:54:06.125Z,29.16
2022-08-17T17:59:17.579Z,29.01
2022-08-17T18:04:30.899Z,28.83
2022-08-17T18:10:00.868Z,28.74
2022-08-17T18:15:13.264Z,28.55
2022-08-17T18:20:32.408Z,28.45
2022-08-17T18:25:50.232Z,28.23
2022-08-17T18:31:15.223Z,28.06
2022-08-17T18:36:36.364Z,27.94
2022-08-17T18:41:44.689Z,27.84
2022-08-17T18:46:49.270Z,27.65
2022-08-17T18:52:13.063Z,27.51
2022-08-17T18:57:22.497Z,27.38
2022-08-17T19:02:46.027Z,27.31
2022-08-17T19:07:53.609Z,27.31
2022-08-17T19:13:12.271Z,27.28
2022-08-17T19:18:21.998Z,27.22
2022-08-17T19:23:36.161Z,27.15
2022-08-17T19:28:48.535Z,26.94
2022-08-17T19:33:54.528Z,26.85
2022-08-17T19:39:08.886Z,26.75
2022-08-17T19:44:46.574Z,26.66
2022-08-17T19:50:02.823Z,26.48
2022-08-17T19:55:20.728Z,26.22
2022-08-17T20:00:25.684Z,26.07
2022-08-17T20:05:54.604Z,26.06
2022-08-17T20:11:05.723Z,26.06
2022-08-17T20:16:12.018Z,25.99
2022-08-17T20:21:21.249Z,25.94
2022-08-17T20:26:31.353Z,25.84
2022-08-17T20:31:45.651Z,25.71
2022-08-17T20:37:02.059Z,25.60
2022-08-17T20:42:29.900Z,25.47
2022-08-17T20:47:37.102Z,25.34
2022-08-17T20:52:55.240Z,25.17
2022-08-17T20:58:23.385Z,25.03
2022-08-17T21:03:51.799Z,24.91
2022-08-17T21:09:00.786Z,24.88
2022-08-17T21:14:15.322Z,24.81
2022-08-17T21:20:00.223Z,24.71
2022-08-17T21:25:10.187Z,24.65
2022-08-17T21:30:27.141Z,24.56
2022-08-17T21:35:49.424Z,24.50
2022-08-17T21:40:56.042Z,24.40
2022-08-17T21:46:07.031Z,24.27
2022-08-17T21:51:14.914Z,24.15
2022-08-17T21:56:27.045Z,24.04
2022-08-17T22:01:37.507Z,23.96
2022-08-17T22:06:54.262Z,23.87
2022-08-17T22:12:07.795Z,23.76
2022-08-17T22:17:19.611Z,23.66
2022-08-17T22:22:29.334Z,23.55
2022-08-17T22:27:48.890Z,23.42
2022-08-17T22:32:56.741Z,23.33
2022-08-17T22:38:29.952Z,23.26
2022-08-17T22:43:35.051Z,23.15
2022-08-17T22:48:50.749Z,23.06
2022-08-17T22:54:10.384Z,23.01
2022-08-17T22:59:50.105Z,22.97
2022-08-17T23:05:18.905Z,22.91
2022-08-17T23:10:23.691Z,22.84
2022-08-17T23:15:34.004Z,22.78
2022-08-17T23:20:44.073Z,22.71
2022-08-17T23:25:49.464Z,22.64
2022-08-17T23:30:54.335Z,22.58
2022-08-17T23:36:01.838Z,22.53
2022-08-17T23:41:13.635Z,22.43
2022-08-17T23:46:18.674Z,22.35
2022-08-17T23:51:30.124Z,22.30
2022-08-17T23:56:37.661Z,22.24
